sensor_id;sensor_type;location;lat;lon;timestamp;P1;durP1;ratioP1;P2;durP2;ratioP2
16845;SDS011;8539;53.188;8.696;2023-08-01T00:00:01;9.43;;;6.72;;
16845;SDS011;8539;53.188;8.696;2023-08-01T00:02:28;8.60;;;6.88;;
16845;SDS011;8539;53.188;8.696;2023-08-01T00:04:55;7.50;;;6.80;;
16845;SDS011;8539;53.188;8.696;2023-08-01T00:07:21;10.63;;;7.13;;
16845;SDS011;8539;53.188;8.696;2023-08-01T00:09:47;9.10;;;7.78;;
16845;SDS011;8539;53.188;8.696;2023-08-01T00:12:14;9.32;;;8.15;;
16845;SDS011;8539;53.188;8.696;2023-08-01T00:14:40;9.23;;;8.27;;
16845;SDS011;8539;53.188;8.696;2023-08-01T00:17:06;9.82;;;7.75;;
16845;SDS011;8539;53.188;8.696;2023-08-01T00:19:32;11.02;;;9.45;;
16845;SDS011;8539;53.188;8.696;2023-08-01T00:21:58;8.80;;;8.00;;
16845;SDS011;8539;53.188;8.696;2023-08-01T00:24:24;10.40;;;9.30;;
16845;SDS011;8539;53.188;8.696;2023-08-01T00:26:51;9.15;;;8.02;;
16845;SDS011;8539;53.188;8.696;2023-08-01T00:29:20;10.70;;;9.43;;
16845;SDS011;8539;53.188;8.696;2023-08-01T00:31:46;10.75;;;9.70;;
16845;SDS011;8539;53.188;8.696;2023-08-01T00:34:13;9.80;;;8.70;;
16845;SDS011;8539;53.188;8.696;2023-08-01T00:36:39;16.00;;;9.57;;
16845;SDS011;8539;53.188;8.696;2023-08-01T00:39:05;12.10;;;10.35;;
16845;SDS011;8539;53.188;8.696;2023-08-01T00:41:31;12.18;;;9.38;;
16845;SDS011;8539;53.188;8.696;2023-08-01T00:43:57;12.32;;;9.77;;
16845;SDS011;8539;53.188;8.696;2023-08-01T00:46:23;11.85;;;9.55;;
16845;SDS011;8539;53.188;8.696;2023-08-01T00:48:50;13.15;;;9.43;;
16845;SDS011;8539;53.188;8.696;2023-08-01T00:51:16;11.57;;;9.55;;
16845;SDS011;8539;53.188;8.696;2023-08-01T00:53:43;14.40;;;10.05;;
16845;SDS011;8539;53.188;8.696;2023-08-01T00:56:11;11.05;;;9.90;;
16845;SDS011;8539;53.188;8.696;2023-08-01T00:58:37;10.50;;;9.43;;
16845;SDS011;8539;53.188;8.696;2023-08-01T01:01:04;13.77;;;10.05;;
16845;SDS011;8539;53.188;8.696;2023-08-01T01:03:30;12.20;;;10.88;;
16845;SDS011;8539;53.188;8.696;2023-08-01T01:05:57;13.25;;;9.88;;
16845;SDS011;8539;53.188;8.696;2023-08-01T01:10:55;9.98;;;8.82;;
16845;SDS011;8539;53.188;8.696;2023-08-01T01:13:21;12.50;;;10.15;;
16845;SDS011;8539;53.188;8.696;2023-08-01T01:15:47;11.52;;;10.32;;
16845;SDS011;8539;53.188;8.696;2023-08-01T01:18:14;11.95;;;10.68;;
16845;SDS011;8539;53.188;8.696;2023-08-01T01:20:40;10.48;;;9.38;;
16845;SDS011;8539;53.188;8.696;2023-08-01T01:23:06;11.07;;;9.88;;
16845;SDS011;8539;53.188;8.696;2023-08-01T01:25:34;10.98;;;9.93;;
16845;SDS011;8539;53.188;8.696;2023-08-01T01:28:04;11.15;;;9.88;;
16845;SDS011;8539;53.188;8.696;2023-08-01T01:30:31;11.13;;;9.98;;
16845;SDS011;8539;53.188;8.696;2023-08-01T01:33:01;11.23;;;10.05;;
16845;SDS011;8539;53.188;8.696;2023-08-01T01:35:29;12.70;;;10.02;;
16845;SDS011;8539;53.188;8.696;2023-08-01T01:37:55;12.02;;;10.35;;
16845;SDS011;8539;53.188;8.696;2023-08-01T01:40:23;14.60;;;9.85;;
16845;SDS011;8539;53.188;8.696;2023-08-01T01:42:50;12.57;;;10.45;;
16845;SDS011;8539;53.188;8.696;2023-08-01T01:45:16;14.40;;;11.15;;
16845;SDS011;8539;53.188;8.696;2023-08-01T01:47:42;14.60;;;10.30;;
16845;SDS011;8539;53.188;8.696;2023-08-01T01:50:08;12.25;;;10.48;;
16845;SDS011;8539;53.188;8.696;2023-08-01T01:52:35;11.35;;;10.25;;
16845;SDS011;8539;53.188;8.696;2023-08-01T01:55:01;16.73;;;10.85;;
16845;SDS011;8539;53.188;8.696;2023-08-01T01:57:27;14.00;;;11.35;;
16845;SDS011;8539;53.188;8.696;2023-08-01T01:59:53;11.93;;;10.52;;
16845;SDS011;8539;53.188;8.696;2023-08-01T02:02:19;13.32;;;10.95;;
16845;SDS011;8539;53.188;8.696;2023-08-01T02:04:46;12.32;;;9.15;;
16845;SDS011;8539;53.188;8.696;2023-08-01T02:07:13;12.07;;;9.07;;
16845;SDS011;8539;53.188;8.696;2023-08-01T02:09:40;12.80;;;9.20;;
16845;SDS011;8539;53.188;8.696;2023-08-01T02:12:06;18.02;;;10.25;;
16845;SDS011;8539;53.188;8.696;2023-08-01T02:14:35;12.20;;;9.57;;
16845;SDS011;8539;53.188;8.696;2023-08-01T02:17:01;12.60;;;8.18;;
16845;SDS011;8539;53.188;8.696;2023-08-01T02:19:27;12.93;;;9.80;;
16845;SDS011;8539;53.188;8.696;2023-08-01T02:21:54;12.05;;;10.10;;
16845;SDS011;8539;53.188;8.696;2023-08-01T02:24:20;14.15;;;10.40;;
16845;SDS011;8539;53.188;8.696;2023-08-01T02:26:46;16.40;;;10.52;;
16845;SDS011;8539;53.188;8.696;2023-08-01T02:29:12;15.30;;;10.52;;
16845;SDS011;8539;53.188;8.696;2023-08-01T02:31:38;13.98;;;10.38;;
16845;SDS011;8539;53.188;8.696;2023-08-01T02:34:04;12.15;;;10.48;;
16845;SDS011;8539;53.188;8.696;2023-08-01T02:36:30;12.63;;;9.50;;
16845;SDS011;8539;53.188;8.696;2023-08-01T02:38:56;12.20;;;8.88;;
16845;SDS011;8539;53.188;8.696;2023-08-01T02:41:22;13.27;;;9.63;;
16845;SDS011;8539;53.188;8.696;2023-08-01T02:43:48;12.02;;;8.80;;
16845;SDS011;8539;53.188;8.696;2023-08-01T02:46:14;15.45;;;9.55;;
16845;SDS011;8539;53.188;8.696;2023-08-01T02:48:40;14.55;;;9.60;;
16845;SDS011;8539;53.188;8.696;2023-08-01T02:51:06;13.48;;;9.68;;
16845;SDS011;8539;53.188;8.696;2023-08-01T02:53:39;15.07;;;8.75;;
16845;SDS011;8539;53.188;8.696;2023-08-01T02:56:25;12.43;;;9.48;;
16845;SDS011;8539;53.188;8.696;2023-08-01T02:59:30;16.40;;;9.13;;
16845;SDS011;8539;53.188;8.696;2023-08-01T03:02:01;9.30;;;6.80;;
16845;SDS011;8539;53.188;8.696;2023-08-01T03:04:35;11.20;;;8.00;;
16845;SDS011;8539;53.188;8.696;2023-08-01T03:07:07;9.05;;;5.50;;
16845;SDS011;8539;53.188;8.696;2023-08-01T03:09:39;8.77;;;4.60;;
16845;SDS011;8539;53.188;8.696;2023-08-01T03:16:53;6.00;;;3.67;;
16845;SDS011;8539;53.188;8.696;2023-08-01T03:19:19;7.70;;;3.72;;
16845;SDS011;8539;53.188;8.696;2023-08-01T03:21:45;7.80;;;3.88;;
16845;SDS011;8539;53.188;8.696;2023-08-01T03:24:12;4.32;;;3.50;;
16845;SDS011;8539;53.188;8.696;2023-08-01T03:26:38;4.90;;;3.33;;
16845;SDS011;8539;53.188;8.696;2023-08-01T03:29:04;5.22;;;3.95;;
16845;SDS011;8539;53.188;8.696;2023-08-01T03:31:30;4.80;;;4.00;;
16845;SDS011;8539;53.188;8.696;2023-08-01T03:33:56;6.05;;;4.35;;
16845;SDS011;8539;53.188;8.696;2023-08-01T03:36:25;10.68;;;5.10;;
16845;SDS011;8539;53.188;8.696;2023-08-01T03:38:51;7.22;;;4.95;;
16845;SDS011;8539;53.188;8.696;2023-08-01T03:41:17;8.30;;;6.82;;
16845;SDS011;8539;53.188;8.696;2023-08-01T03:43:44;8.75;;;6.65;;
16845;SDS011;8539;53.188;8.696;2023-08-01T03:46:10;9.18;;;6.78;;
16845;SDS011;8539;53.188;8.696;2023-08-01T03:48:36;15.05;;;9.38;;
16845;SDS011;8539;53.188;8.696;2023-08-01T03:51:05;15.88;;;10.15;;
16845;SDS011;8539;53.188;8.696;2023-08-01T03:53:32;12.45;;;9.60;;
16845;SDS011;8539;53.188;8.696;2023-08-01T03:55:58;15.27;;;12.77;;
16845;SDS011;8539;53.188;8.696;2023-08-01T03:58:24;17.15;;;12.50;;
16845;SDS011;8539;53.188;8.696;2023-08-01T04:00:50;23.92;;;13.13;;
16845;SDS011;8539;53.188;8.696;2023-08-01T04:03:16;15.85;;;13.55;;
16845;SDS011;8539;53.188;8.696;2023-08-01T04:05:42;16.45;;;13.73;;
16845;SDS011;8539;53.188;8.696;2023-08-01T04:08:08;17.80;;;12.85;;
16845;SDS011;8539;53.188;8.696;2023-08-01T04:10:35;18.10;;;13.00;;
16845;SDS011;8539;53.188;8.696;2023-08-01T04:13:01;23.77;;;14.25;;
16845;SDS011;8539;53.188;8.696;2023-08-01T04:15:27;23.58;;;14.68;;
16845;SDS011;8539;53.188;8.696;2023-08-01T04:17:53;20.75;;;14.93;;
16845;SDS011;8539;53.188;8.696;2023-08-01T04:20:19;23.77;;;15.48;;
16845;SDS011;8539;53.188;8.696;2023-08-01T04:22:45;21.35;;;17.60;;
16845;SDS011;8539;53.188;8.696;2023-08-01T04:25:11;21.10;;;16.02;;
16845;SDS011;8539;53.188;8.696;2023-08-01T04:27:37;24.65;;;17.38;;
16845;SDS011;8539;53.188;8.696;2023-08-01T04:30:03;14.70;;;11.18;;
16845;SDS011;8539;53.188;8.696;2023-08-01T04:32:30;16.02;;;9.52;;
16845;SDS011;8539;53.188;8.696;2023-08-01T04:34:56;8.68;;;6.38;;
16845;SDS011;8539;53.188;8.696;2023-08-01T04:37:23;11.55;;;6.43;;
16845;SDS011;8539;53.188;8.696;2023-08-01T04:39:49;8.65;;;5.10;;
16845;SDS011;8539;53.188;8.696;2023-08-01T04:42:15;8.15;;;5.85;;
16845;SDS011;8539;53.188;8.696;2023-08-01T04:44:41;7.10;;;4.82;;
16845;SDS011;8539;53.188;8.696;2023-08-01T04:47:07;5.40;;;4.90;;
16845;SDS011;8539;53.188;8.696;2023-08-01T04:49:33;8.25;;;5.00;;
16845;SDS011;8539;53.188;8.696;2023-08-01T04:51:59;6.63;;;5.70;;
16845;SDS011;8539;53.188;8.696;2023-08-01T04:54:26;10.23;;;5.47;;
16845;SDS011;8539;53.188;8.696;2023-08-01T04:56:52;9.63;;;6.45;;
16845;SDS011;8539;53.188;8.696;2023-08-01T04:59:18;8.80;;;7.40;;
16845;SDS011;8539;53.188;8.696;2023-08-01T05:01:44;9.13;;;7.25;;
16845;SDS011;8539;53.188;8.696;2023-08-01T05:04:10;13.95;;;7.95;;
16845;SDS011;8539;53.188;8.696;2023-08-01T05:06:37;14.80;;;8.88;;
16845;SDS011;8539;53.188;8.696;2023-08-01T05:09:03;12.77;;;8.23;;
16845;SDS011;8539;53.188;8.696;2023-08-01T05:11:30;18.88;;;10.30;;
16845;SDS011;8539;53.188;8.696;2023-08-01T05:13:56;14.40;;;9.35;;
16845;SDS011;8539;53.188;8.696;2023-08-01T05:16:22;11.88;;;9.10;;
16845;SDS011;8539;53.188;8.696;2023-08-01T05:18:48;10.30;;;7.55;;
16845;SDS011;8539;53.188;8.696;2023-08-01T05:21:15;9.30;;;7.07;;
16845;SDS011;8539;53.188;8.696;2023-08-01T05:23:41;8.65;;;6.63;;
16845;SDS011;8539;53.188;8.696;2023-08-01T05:26:07;11.05;;;7.28;;
16845;SDS011;8539;53.188;8.696;2023-08-01T05:28:33;10.38;;;7.10;;
16845;SDS011;8539;53.188;8.696;2023-08-01T05:30:59;10.30;;;6.43;;
16845;SDS011;8539;53.188;8.696;2023-08-01T05:33:25;9.82;;;6.82;;
16845;SDS011;8539;53.188;8.696;2023-08-01T05:35:51;10.27;;;6.70;;
16845;SDS011;8539;53.188;8.696;2023-08-01T05:38:17;13.50;;;6.47;;
16845;SDS011;8539;53.188;8.696;2023-08-01T05:40:45;7.65;;;6.25;;
16845;SDS011;8539;53.188;8.696;2023-08-01T05:43:13;13.68;;;6.70;;
16845;SDS011;8539;53.188;8.696;2023-08-01T05:45:40;8.77;;;6.55;;
16845;SDS011;8539;53.188;8.696;2023-08-01T05:48:06;11.88;;;6.65;;
16845;SDS011;8539;53.188;8.696;2023-08-01T05:50:32;7.60;;;5.60;;
16845;SDS011;8539;53.188;8.696;2023-08-01T05:52:58;15.05;;;7.10;;
16845;SDS011;8539;53.188;8.696;2023-08-01T05:55:24;10.05;;;7.05;;
16845;SDS011;8539;53.188;8.696;2023-08-01T05:57:50;9.60;;;7.20;;
16845;SDS011;8539;53.188;8.696;2023-08-01T06:00:18;15.25;;;7.85;;
16845;SDS011;8539;53.188;8.696;2023-08-01T06:02:47;10.38;;;6.88;;
16845;SDS011;8539;53.188;8.696;2023-08-01T06:05:14;9.55;;;7.50;;
16845;SDS011;8539;53.188;8.696;2023-08-01T06:07:40;13.35;;;7.00;;
16845;SDS011;8539;53.188;8.696;2023-08-01T06:10:08;12.82;;;7.78;;
16845;SDS011;8539;53.188;8.696;2023-08-01T06:12:43;9.95;;;7.60;;
16845;SDS011;8539;53.188;8.696;2023-08-01T06:15:09;16.67;;;9.15;;
16845;SDS011;8539;53.188;8.696;2023-08-01T06:17:36;12.25;;;8.23;;
16845;SDS011;8539;53.188;8.696;2023-08-01T06:20:02;15.40;;;9.02;;
16845;SDS011;8539;53.188;8.696;2023-08-01T06:22:34;13.75;;;9.65;;
16845;SDS011;8539;53.188;8.696;2023-08-01T06:25:00;21.92;;;9.38;;
16845;SDS011;8539;53.188;8.696;2023-08-01T06:27:26;13.35;;;9.77;;
16845;SDS011;8539;53.188;8.696;2023-08-01T06:29:52;14.85;;;9.82;;
16845;SDS011;8539;53.188;8.696;2023-08-01T06:32:18;14.82;;;9.93;;
16845;SDS011;8539;53.188;8.696;2023-08-01T06:34:45;14.90;;;9.55;;
16845;SDS011;8539;53.188;8.696;2023-08-01T06:37:11;13.68;;;10.50;;
16845;SDS011;8539;53.188;8.696;2023-08-01T06:39:37;20.50;;;10.65;;
16845;SDS011;8539;53.188;8.696;2023-08-01T06:42:04;17.90;;;10.25;;
16845;SDS011;8539;53.188;8.696;2023-08-01T06:44:33;22.02;;;9.55;;
16845;SDS011;8539;53.188;8.696;2023-08-01T06:46:59;15.80;;;9.70;;
16845;SDS011;8539;53.188;8.696;2023-08-01T06:49:26;17.77;;;10.35;;
16845;SDS011;8539;53.188;8.696;2023-08-01T06:51:52;13.43;;;9.85;;
16845;SDS011;8539;53.188;8.696;2023-08-01T06:54:18;18.20;;;9.80;;
16845;SDS011;8539;53.188;8.696;2023-08-01T06:56:44;19.95;;;11.85;;
16845;SDS011;8539;53.188;8.696;2023-08-01T06:59:13;12.02;;;9.20;;
16845;SDS011;8539;53.188;8.696;2023-08-01T07:01:41;13.95;;;9.68;;
16845;SDS011;8539;53.188;8.696;2023-08-01T07:04:09;13.65;;;9.48;;
16845;SDS011;8539;53.188;8.696;2023-08-01T07:06:36;13.85;;;8.10;;
16845;SDS011;8539;53.188;8.696;2023-08-01T07:09:02;15.10;;;7.20;;
16845;SDS011;8539;53.188;8.696;2023-08-01T07:11:28;7.75;;;6.68;;
16845;SDS011;8539;53.188;8.696;2023-08-01T07:13:54;11.43;;;6.35;;
16845;SDS011;8539;53.188;8.696;2023-08-01T07:16:20;6.63;;;5.75;;
16845;SDS011;8539;53.188;8.696;2023-08-01T07:18:46;13.00;;;5.68;;
16845;SDS011;8539;53.188;8.696;2023-08-01T07:21:13;12.23;;;5.68;;
16845;SDS011;8539;53.188;8.696;2023-08-01T07:23:40;7.75;;;5.22;;
16845;SDS011;8539;53.188;8.696;2023-08-01T07:26:06;8.25;;;4.72;;
16845;SDS011;8539;53.188;8.696;2023-08-01T07:28:32;10.73;;;4.68;;
16845;SDS011;8539;53.188;8.696;2023-08-01T07:31:02;6.78;;;4.35;;
16845;SDS011;8539;53.188;8.696;2023-08-01T07:33:33;11.52;;;5.30;;
16845;SDS011;8539;53.188;8.696;2023-08-01T07:36:00;11.10;;;5.38;;
16845;SDS011;8539;53.188;8.696;2023-08-01T07:38:26;8.07;;;4.32;;
16845;SDS011;8539;53.188;8.696;2023-08-01T07:40:53;4.60;;;3.03;;
16845;SDS011;8539;53.188;8.696;2023-08-01T07:43:20;7.88;;;3.60;;
16845;SDS011;8539;53.188;8.696;2023-08-01T07:45:46;4.07;;;2.60;;
16845;SDS011;8539;53.188;8.696;2023-08-01T07:48:16;7.25;;;2.83;;
16845;SDS011;8539;53.188;8.696;2023-08-01T07:50:42;9.57;;;2.70;;
16845;SDS011;8539;53.188;8.696;2023-08-01T07:53:08;4.63;;;2.33;;
16845;SDS011;8539;53.188;8.696;2023-08-01T07:55:37;4.70;;;2.75;;
16845;SDS011;8539;53.188;8.696;2023-08-01T07:58:03;3.67;;;2.38;;
16845;SDS011;8539;53.188;8.696;2023-08-01T08:00:30;5.40;;;2.40;;
16845;SDS011;8539;53.188;8.696;2023-08-01T08:02:59;5.20;;;2.55;;
16845;SDS011;8539;53.188;8.696;2023-08-01T08:05:25;7.65;;;3.22;;
16845;SDS011;8539;53.188;8.696;2023-08-01T08:07:51;5.72;;;2.58;;
16845;SDS011;8539;53.188;8.696;2023-08-01T08:10:17;6.05;;;2.40;;
16845;SDS011;8539;53.188;8.696;2023-08-01T08:12:43;7.32;;;2.00;;
16845;SDS011;8539;53.188;8.696;2023-08-01T08:15:09;8.07;;;3.13;;
16845;SDS011;8539;53.188;8.696;2023-08-01T08:17:35;5.65;;;2.20;;
16845;SDS011;8539;53.188;8.696;2023-08-01T08:20:02;4.50;;;2.70;;
16845;SDS011;8539;53.188;8.696;2023-08-01T08:22:29;3.60;;;2.22;;
16845;SDS011;8539;53.188;8.696;2023-08-01T08:24:55;4.25;;;2.78;;
16845;SDS011;8539;53.188;8.696;2023-08-01T08:27:24;6.22;;;2.40;;
16845;SDS011;8539;53.188;8.696;2023-08-01T08:29:50;3.63;;;2.67;;
16845;SDS011;8539;53.188;8.696;2023-08-01T08:32:16;7.20;;;2.47;;
16845;SDS011;8539;53.188;8.696;2023-08-01T08:34:42;5.57;;;2.53;;
16845;SDS011;8539;53.188;8.696;2023-08-01T08:37:08;6.97;;;3.42;;
16845;SDS011;8539;53.188;8.696;2023-08-01T08:39:34;5.82;;;3.20;;
16845;SDS011;8539;53.188;8.696;2023-08-01T08:42:01;8.13;;;3.13;;
16845;SDS011;8539;53.188;8.696;2023-08-01T08:44:27;4.40;;;2.88;;
16845;SDS011;8539;53.188;8.696;2023-08-01T08:47:02;4.43;;;2.85;;
16845;SDS011;8539;53.188;8.696;2023-08-01T08:49:38;6.78;;;2.70;;
16845;SDS011;8539;53.188;8.696;2023-08-01T08:52:06;8.60;;;2.40;;
16845;SDS011;8539;53.188;8.696;2023-08-01T08:54:32;2.90;;;2.10;;
16845;SDS011;8539;53.188;8.696;2023-08-01T08:56:59;8.20;;;2.42;;
16845;SDS011;8539;53.188;8.696;2023-08-01T08:59:26;7.72;;;2.33;;
16845;SDS011;8539;53.188;8.696;2023-08-01T09:01:55;3.92;;;2.08;;
16845;SDS011;8539;53.188;8.696;2023-08-01T09:04:22;2.45;;;1.70;;
16845;SDS011;8539;53.188;8.696;2023-08-01T09:06:51;4.68;;;2.42;;
16845;SDS011;8539;53.188;8.696;2023-08-01T09:09:23;8.77;;;1.90;;
16845;SDS011;8539;53.188;8.696;2023-08-01T09:14:33;3.08;;;2.00;;
16845;SDS011;8539;53.188;8.696;2023-08-01T09:17:07;2.13;;;1.67;;
16845;SDS011;8539;53.188;8.696;2023-08-01T09:19:33;4.25;;;1.80;;
16845;SDS011;8539;53.188;8.696;2023-08-01T09:22:09;1.60;;;1.38;;
16845;SDS011;8539;53.188;8.696;2023-08-01T09:25:00;5.70;;;1.40;;
16845;SDS011;8539;53.188;8.696;2023-08-01T09:27:34;6.20;;;1.40;;
16845;SDS011;8539;53.188;8.696;2023-08-01T09:30:24;3.65;;;1.17;;
16845;SDS011;8539;53.188;8.696;2023-08-01T09:33:17;2.38;;;1.80;;
16845;SDS011;8539;53.188;8.696;2023-08-01T09:35:49;2.20;;;1.65;;
16845;SDS011;8539;53.188;8.696;2023-08-01T09:38:33;5.90;;;1.13;;
16845;SDS011;8539;53.188;8.696;2023-08-01T09:41:06;3.28;;;1.42;;
16845;SDS011;8539;53.188;8.696;2023-08-01T09:43:48;2.40;;;1.45;;
16845;SDS011;8539;53.188;8.696;2023-08-01T09:46:18;2.22;;;1.30;;
16845;SDS011;8539;53.188;8.696;2023-08-01T09:48:50;2.08;;;1.20;;
16845;SDS011;8539;53.188;8.696;2023-08-01T09:51:24;2.97;;;1.50;;
16845;SDS011;8539;53.188;8.696;2023-08-01T09:54:19;4.50;;;1.60;;
16845;SDS011;8539;53.188;8.696;2023-08-01T09:57:07;2.75;;;1.67;;
16845;SDS011;8539;53.188;8.696;2023-08-01T09:59:54;1.58;;;1.23;;
16845;SDS011;8539;53.188;8.696;2023-08-01T10:02:24;3.97;;;1.20;;
16845;SDS011;8539;53.188;8.696;2023-08-01T10:04:58;3.13;;;1.15;;
16845;SDS011;8539;53.188;8.696;2023-08-01T10:07:29;4.28;;;1.70;;
16845;SDS011;8539;53.188;8.696;2023-08-01T10:09:58;1.98;;;1.13;;
16845;SDS011;8539;53.188;8.696;2023-08-01T10:12:28;2.17;;;1.17;;
16845;SDS011;8539;53.188;8.696;2023-08-01T10:15:11;4.53;;;1.42;;
16845;SDS011;8539;53.188;8.696;2023-08-01T10:17:59;4.05;;;1.50;;
16845;SDS011;8539;53.188;8.696;2023-08-01T10:20:38;2.53;;;1.20;;
16845;SDS011;8539;53.188;8.696;2023-08-01T10:23:18;1.92;;;1.55;;
16845;SDS011;8539;53.188;8.696;2023-08-01T10:25:46;1.83;;;1.10;;
16845;SDS011;8539;53.188;8.696;2023-08-01T10:28:12;3.13;;;1.50;;
16845;SDS011;8539;53.188;8.696;2023-08-01T10:30:39;5.18;;;1.35;;
16845;SDS011;8539;53.188;8.696;2023-08-01T10:33:05;3.92;;;1.40;;
16845;SDS011;8539;53.188;8.696;2023-08-01T10:35:52;1.42;;;1.25;;
16845;SDS011;8539;53.188;8.696;2023-08-01T10:38:17;1.13;;;0.93;;
16845;SDS011;8539;53.188;8.696;2023-08-01T10:40:44;1.67;;;1.17;;
16845;SDS011;8539;53.188;8.696;2023-08-01T10:45:37;3.20;;;1.10;;
16845;SDS011;8539;53.188;8.696;2023-08-01T10:48:10;3.63;;;1.45;;
16845;SDS011;8539;53.188;8.696;2023-08-01T10:50:37;3.17;;;2.05;;
16845;SDS011;8539;53.188;8.696;2023-08-01T10:53:07;4.20;;;1.50;;
16845;SDS011;8539;53.188;8.696;2023-08-01T10:55:45;2.38;;;1.33;;
16845;SDS011;8539;53.188;8.696;2023-08-01T10:58:13;2.35;;;1.05;;
16845;SDS011;8539;53.188;8.696;2023-08-01T11:00:39;2.55;;;1.13;;
16845;SDS011;8539;53.188;8.696;2023-08-01T11:03:08;2.28;;;1.45;;
16845;SDS011;8539;53.188;8.696;2023-08-01T11:05:37;1.63;;;1.05;;
16845;SDS011;8539;53.188;8.696;2023-08-01T11:08:06;2.03;;;1.40;;
16845;SDS011;8539;53.188;8.696;2023-08-01T11:10:32;2.35;;;1.20;;
16845;SDS011;8539;53.188;8.696;2023-08-01T11:13:10;1.60;;;1.10;;
16845;SDS011;8539;53.188;8.696;2023-08-01T11:15:40;2.05;;;0.93;;
16845;SDS011;8539;53.188;8.696;2023-08-01T11:18:15;7.35;;;1.40;;
16845;SDS011;8539;53.188;8.696;2023-08-01T11:20:41;3.42;;;1.08;;
16845;SDS011;8539;53.188;8.696;2023-08-01T11:23:07;1.77;;;1.00;;
16845;SDS011;8539;53.188;8.696;2023-08-01T11:25:40;1.38;;;0.95;;
16845;SDS011;8539;53.188;8.696;2023-08-01T11:28:14;2.38;;;1.23;;
16845;SDS011;8539;53.188;8.696;2023-08-01T11:31:10;3.50;;;0.93;;
16845;SDS011;8539;53.188;8.696;2023-08-01T11:33:39;4.63;;;1.38;;
16845;SDS011;8539;53.188;8.696;2023-08-01T11:36:05;1.83;;;1.27;;
16845;SDS011;8539;53.188;8.696;2023-08-01T11:38:32;1.10;;;1.00;;
16845;SDS011;8539;53.188;8.696;2023-08-01T11:41:00;3.65;;;1.10;;
16845;SDS011;8539;53.188;8.696;2023-08-01T11:43:37;1.95;;;1.10;;
16845;SDS011;8539;53.188;8.696;2023-08-01T11:46:06;2.67;;;0.90;;
16845;SDS011;8539;53.188;8.696;2023-08-01T11:48:32;1.38;;;1.00;;
16845;SDS011;8539;53.188;8.696;2023-08-01T11:50:59;1.65;;;1.20;;
16845;SDS011;8539;53.188;8.696;2023-08-01T11:53:26;2.55;;;1.15;;
16845;SDS011;8539;53.188;8.696;2023-08-01T11:55:53;1.67;;;0.93;;
16845;SDS011;8539;53.188;8.696;2023-08-01T11:58:28;3.03;;;1.05;;
16845;SDS011;8539;53.188;8.696;2023-08-01T12:03:51;2.50;;;0.90;;
16845;SDS011;8539;53.188;8.696;2023-08-01T12:06:20;2.92;;;0.88;;
16845;SDS011;8539;53.188;8.696;2023-08-01T12:08:50;2.55;;;0.85;;
16845;SDS011;8539;53.188;8.696;2023-08-01T12:11:26;2.40;;;1.30;;
16845;SDS011;8539;53.188;8.696;2023-08-01T12:14:06;4.50;;;1.40;;
16845;SDS011;8539;53.188;8.696;2023-08-01T12:16:35;2.65;;;1.55;;
16845;SDS011;8539;53.188;8.696;2023-08-01T12:19:02;3.50;;;1.35;;
16845;SDS011;8539;53.188;8.696;2023-08-01T12:21:32;1.33;;;0.90;;
16845;SDS011;8539;53.188;8.696;2023-08-01T12:23:59;2.25;;;1.30;;
16845;SDS011;8539;53.188;8.696;2023-08-01T12:26:28;1.70;;;1.13;;
16845;SDS011;8539;53.188;8.696;2023-08-01T12:29:04;2.95;;;1.10;;
16845;SDS011;8539;53.188;8.696;2023-08-01T12:31:54;1.95;;;1.27;;
16845;SDS011;8539;53.188;8.696;2023-08-01T12:34:20;4.55;;;0.98;;
16845;SDS011;8539;53.188;8.696;2023-08-01T12:36:46;2.72;;;1.08;;
16845;SDS011;8539;53.188;8.696;2023-08-01T12:39:16;3.50;;;1.05;;
16845;SDS011;8539;53.188;8.696;2023-08-01T12:41:42;3.97;;;1.17;;
16845;SDS011;8539;53.188;8.696;2023-08-01T12:44:08;4.85;;;1.20;;
16845;SDS011;8539;53.188;8.696;2023-08-01T12:46:35;5.47;;;1.83;;
16845;SDS011;8539;53.188;8.696;2023-08-01T12:49:01;2.28;;;1.13;;
16845;SDS011;8539;53.188;8.696;2023-08-01T12:51:28;2.75;;;1.02;;
16845;SDS011;8539;53.188;8.696;2023-08-01T12:53:54;2.13;;;1.02;;
16845;SDS011;8539;53.188;8.696;2023-08-01T12:56:20;3.60;;;1.00;;
16845;SDS011;8539;53.188;8.696;2023-08-01T12:58:46;6.70;;;1.88;;
16845;SDS011;8539;53.188;8.696;2023-08-01T13:01:12;2.72;;;1.45;;
16845;SDS011;8539;53.188;8.696;2023-08-01T13:03:38;3.42;;;1.52;;
16845;SDS011;8539;53.188;8.696;2023-08-01T13:06:04;3.08;;;1.00;;
16845;SDS011;8539;53.188;8.696;2023-08-01T13:08:30;2.25;;;1.10;;
16845;SDS011;8539;53.188;8.696;2023-08-01T13:10:57;2.42;;;1.08;;
16845;SDS011;8539;53.188;8.696;2023-08-01T13:13:25;2.10;;;1.20;;
16845;SDS011;8539;53.188;8.696;2023-08-01T13:15:52;2.35;;;1.10;;
16845;SDS011;8539;53.188;8.696;2023-08-01T13:18:21;3.83;;;1.45;;
16845;SDS011;8539;53.188;8.696;2023-08-01T13:20:47;4.50;;;1.10;;
16845;SDS011;8539;53.188;8.696;2023-08-01T13:23:28;2.88;;;1.42;;
16845;SDS011;8539;53.188;8.696;2023-08-01T13:25:57;1.75;;;1.27;;
16845;SDS011;8539;53.188;8.696;2023-08-01T13:28:35;3.80;;;1.35;;
16845;SDS011;8539;53.188;8.696;2023-08-01T13:31:05;4.15;;;1.30;;
16845;SDS011;8539;53.188;8.696;2023-08-01T13:33:35;5.20;;;1.30;;
16845;SDS011;8539;53.188;8.696;2023-08-01T13:36:01;2.70;;;1.23;;
16845;SDS011;8539;53.188;8.696;2023-08-01T13:38:36;4.05;;;1.35;;
16845;SDS011;8539;53.188;8.696;2023-08-01T13:41:02;2.40;;;1.20;;
16845;SDS011;8539;53.188;8.696;2023-08-01T13:43:38;4.20;;;1.40;;
16845;SDS011;8539;53.188;8.696;2023-08-01T13:46:09;4.78;;;1.58;;
16845;SDS011;8539;53.188;8.696;2023-08-01T13:48:43;3.83;;;1.70;;
16845;SDS011;8539;53.188;8.696;2023-08-01T13:51:10;3.88;;;1.20;;
16845;SDS011;8539;53.188;8.696;2023-08-01T13:53:36;2.80;;;1.40;;
16845;SDS011;8539;53.188;8.696;2023-08-01T13:56:21;1.50;;;1.33;;
16845;SDS011;8539;53.188;8.696;2023-08-01T13:59:07;5.35;;;1.52;;
16845;SDS011;8539;53.188;8.696;2023-08-01T14:01:34;3.05;;;1.27;;
16845;SDS011;8539;53.188;8.696;2023-08-01T14:04:08;3.88;;;1.67;;
16845;SDS011;8539;53.188;8.696;2023-08-01T14:06:35;2.95;;;0.90;;
16845;SDS011;8539;53.188;8.696;2023-08-01T14:09:03;2.63;;;1.05;;
16845;SDS011;8539;53.188;8.696;2023-08-01T14:11:29;4.00;;;1.40;;
16845;SDS011;8539;53.188;8.696;2023-08-01T14:19:10;4.28;;;1.80;;
16845;SDS011;8539;53.188;8.696;2023-08-01T14:21:51;3.60;;;2.08;;
16845;SDS011;8539;53.188;8.696;2023-08-01T14:24:17;4.80;;;1.40;;
16845;SDS011;8539;53.188;8.696;2023-08-01T14:26:47;3.58;;;1.40;;
16845;SDS011;8539;53.188;8.696;2023-08-01T14:29:13;2.35;;;1.10;;
16845;SDS011;8539;53.188;8.696;2023-08-01T14:31:39;6.93;;;1.95;;
16845;SDS011;8539;53.188;8.696;2023-08-01T14:34:07;3.95;;;1.30;;
16845;SDS011;8539;53.188;8.696;2023-08-01T14:36:33;3.78;;;1.55;;
16845;SDS011;8539;53.188;8.696;2023-08-01T14:38:59;3.03;;;1.13;;
16845;SDS011;8539;53.188;8.696;2023-08-01T14:41:31;4.95;;;1.30;;
16845;SDS011;8539;53.188;8.696;2023-08-01T14:44:05;2.63;;;1.30;;
16845;SDS011;8539;53.188;8.696;2023-08-01T14:46:35;5.00;;;2.40;;
16845;SDS011;8539;53.188;8.696;2023-08-01T14:49:19;2.00;;;1.17;;
16845;SDS011;8539;53.188;8.696;2023-08-01T14:51:47;2.20;;;1.10;;
16845;SDS011;8539;53.188;8.696;2023-08-01T14:54:17;4.22;;;1.58;;
16845;SDS011;8539;53.188;8.696;2023-08-01T14:56:43;3.90;;;1.15;;
16845;SDS011;8539;53.188;8.696;2023-08-01T14:59:09;5.93;;;1.35;;
16845;SDS011;8539;53.188;8.696;2023-08-01T15:42:34;5.70;;;1.70;;
16845;SDS011;8539;53.188;8.696;2023-08-01T15:45:00;5.07;;;1.52;;
16845;SDS011;8539;53.188;8.696;2023-08-01T15:47:27;5.00;;;2.10;;
16845;SDS011;8539;53.188;8.696;2023-08-01T15:53:22;6.13;;;1.85;;
16845;SDS011;8539;53.188;8.696;2023-08-01T15:55:59;3.35;;;1.63;;
16845;SDS011;8539;53.188;8.696;2023-08-01T15:58:29;7.65;;;1.92;;
16845;SDS011;8539;53.188;8.696;2023-08-01T16:00:56;3.85;;;1.40;;
16845;SDS011;8539;53.188;8.696;2023-08-01T16:03:23;6.30;;;1.63;;
16845;SDS011;8539;53.188;8.696;2023-08-01T16:32:21;2.88;;;1.02;;
16845;SDS011;8539;53.188;8.696;2023-08-01T16:34:47;3.63;;;1.10;;